createdAt,value
2017-10-26T00:00:05.783Z,19.65
2017-10-26T00:00:19.948Z,19.6
2017-10-26T00:00:33.251Z,19.63
2017-10-26T00:00:47.119Z,19.57
2017-10-26T00:01:01.129Z,19.57
2017-10-26T00:01:15.111Z,19.56
2017-10-26T00:01:28.986Z,19.52
2017-10-26T00:01:45.415Z,19.52
2017-10-26T00:01:59.399Z,19.57
2017-10-26T00:02:12.710Z,19.63
2017-10-26T00:02:25.977Z,19.47
2017-10-26T00:02:39.848Z,19.52
2017-10-26T00:02:53.757Z,19.45
2017-10-26T00:03:07.651Z,19.57
2017-10-26T00:03:21.446Z,19.43
2017-10-26T00:03:35.254Z,19.49
2017-10-26T00:03:49.137Z,19.53
2017-10-26T00:04:02.904Z,19.46
2017-10-26T00:04:18.259Z,19.49
2017-10-26T00:04:32.064Z,19.5
2017-10-26T00:04:46.246Z,19.63
2017-10-26T00:04:59.997Z,19.5
2017-10-26T00:05:13.710Z,19.56
2017-10-26T00:05:27.409Z,19.55
2017-10-26T00:05:40.985Z,19.56
2017-10-26T00:05:54.627Z,19.61
2017-10-26T00:06:07.727Z,19.57
2017-10-26T00:06:21.390Z,19.63
2017-10-26T00:06:35.248Z,19.61
2017-10-26T00:06:49.081Z,19.64
2017-10-26T00:07:02.722Z,19.6
2017-10-26T00:07:16.240Z,19.65
2017-10-26T00:07:29.757Z,19.7
2017-10-26T00:07:43.309Z,19.65
2017-10-26T00:07:56.797Z,19.65
2017-10-26T00:08:10.369Z,19.64
2017-10-26T00:08:23.861Z,19.67
2017-10-26T00:08:36.247Z,19.7
2017-10-26T00:08:49.189Z,19.64
2017-10-26T00:09:02.243Z,19.63
2017-10-26T00:09:15.220Z,19.63
2017-10-26T00:09:28.816Z,19.65
2017-10-26T00:09:41.912Z,19.67
2017-10-26T00:09:55.073Z,19.63
2017-10-26T00:10:08.584Z,19.65
2017-10-26T00:10:21.539Z,19.63
2017-10-26T00:10:35.068Z,19.67
2017-10-26T00:10:48.095Z,19.61
2017-10-26T00:11:01.617Z,19.65
2017-10-26T00:11:15.226Z,19.68
2017-10-26T00:11:28.256Z,19.64
2017-10-26T00:11:41.758Z,19.68
2017-10-26T00:11:54.734Z,19.68
2017-10-26T00:12:07.652Z,19.68
2017-10-26T00:12:21.312Z,19.6
2017-10-26T00:12:34.833Z,19.65
2017-10-26T00:12:47.826Z,19.71
2017-10-26T00:13:00.809Z,19.63
2017-10-26T00:13:14.251Z,19.63
2017-10-26T00:13:27.816Z,19.64
2017-10-26T00:13:40.802Z,19.63
2017-10-26T00:13:53.730Z,19.64
2017-10-26T00:14:07.258Z,19.67
2017-10-26T00:14:20.316Z,19.61
2017-10-26T00:14:33.851Z,19.64
2017-10-26T00:14:46.861Z,19.64
2017-10-26T00:15:00.008Z,19.65
2017-10-26T00:15:13.697Z,19.64
2017-10-26T00:15:27.366Z,19.63
2017-10-26T00:15:40.948Z,19.61
2017-10-26T00:15:53.949Z,19.61
2017-10-26T00:16:07.584Z,19.67
2017-10-26T00:16:21.256Z,19.68
2017-10-26T00:16:34.782Z,19.74
2017-10-26T00:16:48.439Z,19.65
2017-10-26T00:17:01.996Z,19.64
2017-10-26T00:17:15.500Z,19.64
2017-10-26T00:17:29.014Z,19.67
2017-10-26T00:17:41.930Z,19.64
2017-10-26T00:17:54.425Z,19.68
2017-10-26T00:18:08.047Z,19.68
2017-10-26T00:18:21.061Z,19.68
2017-10-26T00:18:34.746Z,19.65
2017-10-26T00:18:48.370Z,19.71
2017-10-26T00:19:01.921Z,19.67
2017-10-26T00:19:15.363Z,19.68
2017-10-26T00:19:28.315Z,19.65
2017-10-26T00:19:41.261Z,19.67
2017-10-26T00:19:55.528Z,19.7
2017-10-26T00:20:09.150Z,19.7
2017-10-26T00:20:22.096Z,19.63
2017-10-26T00:20:35.701Z,19.68
2017-10-26T00:20:48.773Z,19.67
2017-10-26T00:21:02.316Z,19.68
2017-10-26T00:21:15.857Z,19.61
2017-10-26T00:21:29.489Z,19.7
2017-10-26T00:21:43.124Z,19.63
2017-10-26T00:21:56.738Z,19.72
2017-10-26T00:22:10.201Z,19.7
2017-10-26T00:22:23.802Z,19.7
2017-10-26T00:22:37.360Z,19.68
2017-10-26T00:22:49.202Z,19.65
2017-10-26T00:23:01.594Z,19.7
2017-10-26T00:23:15.116Z,19.61
2017-10-26T00:23:28.117Z,19.68
2017-10-26T00:23:40.499Z,19.64
2017-10-26T00:23:53.400Z,19.7
2017-10-26T00:24:06.990Z,19.67
2017-10-26T00:24:19.999Z,19.65
2017-10-26T00:24:33.548Z,19.65
2017-10-26T00:24:47.146Z,19.65
2017-10-26T00:25:00.810Z,19.7
2017-10-26T00:25:13.889Z,19.63
2017-10-26T00:25:26.901Z,19.64
2017-10-26T00:25:40.468Z,19.63
2017-10-26T00:25:52.857Z,19.61
2017-10-26T00:26:06.447Z,19.67
2017-10-26T00:26:19.389Z,19.67
2017-10-26T00:26:32.853Z,19.55
2017-10-26T00:26:46.390Z,19.53
2017-10-26T00:26:59.918Z,19.56
2017-10-26T00:27:13.570Z,19.61
2017-10-26T00:27:26.080Z,19.56
2017-10-26T00:27:39.571Z,19.67
2017-10-26T00:27:53.093Z,19.67
2017-10-26T00:28:06.768Z,19.64
2017-10-26T00:28:20.366Z,19.63
2017-10-26T00:28:33.954Z,19.65
2017-10-26T00:28:46.999Z,19.74
2017-10-26T00:29:00.573Z,19.63
2017-10-26T00:29:14.187Z,19.65
2017-10-26T00:29:27.691Z,19.65
2017-10-26T00:29:41.255Z,19.7
2017-10-26T00:29:54.836Z,19.67
2017-10-26T00:30:07.929Z,19.72
2017-10-26T00:30:21.436Z,19.68
2017-10-26T00:30:34.416Z,19.68
2017-10-26T00:30:47.348Z,19.71
2017-10-26T00:31:00.915Z,19.7
2017-10-26T00:31:14.396Z,19.61
2017-10-26T00:31:27.830Z,19.65
2017-10-26T00:31:40.288Z,19.68
2017-10-26T00:31:53.803Z,19.64
2017-10-26T00:32:07.331Z,19.7
2017-10-26T00:32:20.281Z,19.74
2017-10-26T00:32:33.818Z,19.74
2017-10-26T00:32:46.794Z,19.63
2017-10-26T00:32:59.823Z,19.65
2017-10-26T00:33:13.291Z,19.63
2017-10-26T00:33:26.911Z,19.67
2017-10-26T00:33:39.897Z,19.56
2017-10-26T00:33:52.866Z,19.64
2017-10-26T00:34:06.325Z,19.57
2017-10-26T00:34:19.900Z,19.61
2017-10-26T00:34:32.916Z,19.57
2017-10-26T00:34:45.896Z,19.56
2017-10-26T00:34:59.539Z,19.56
2017-10-26T00:35:12.485Z,19.46
2017-10-26T00:35:25.937Z,19.47
2017-10-26T00:35:39.557Z,19.47
2017-10-26T00:35:53.035Z,19.52
2017-10-26T00:36:06.506Z,19.52
2017-10-26T00:36:19.456Z,19.49
2017-10-26T00:36:32.380Z,19.52
2017-10-26T00:36:45.912Z,19.47
2017-10-26T00:36:58.333Z,19.5
2017-10-26T00:37:11.869Z,19.52
2017-10-26T00:37:25.419Z,19.52
2017-10-26T00:37:38.882Z,19.49
2017-10-26T00:37:52.329Z,19.47
2017-10-26T00:38:05.806Z,19.49
2017-10-26T00:38:18.772Z,19.43
2017-10-26T00:38:31.710Z,19.43
2017-10-26T00:38:45.133Z,19.5
2017-10-26T00:38:58.589Z,19.43
2017-10-26T00:39:11.552Z,19.43
2017-10-26T00:39:24.478Z,19.5
2017-10-26T00:39:37.870Z,19.4
2017-10-26T00:39:51.346Z,19.46
2017-10-26T00:40:04.868Z,19.55
2017-10-26T00:40:18.339Z,19.45
2017-10-26T00:40:31.819Z,19.42
2017-10-26T00:40:45.256Z,19.47
2017-10-26T00:40:58.752Z,19.4
2017-10-26T00:41:11.684Z,19.46
2017-10-26T00:41:25.121Z,19.5
2017-10-26T00:41:38.608Z,19.56
2017-10-26T00:41:52.090Z,19.45
2017-10-26T00:42:05.618Z,19.47
2017-10-26T00:42:18.495Z,19.52
2017-10-26T00:42:31.928Z,19.46
2017-10-26T00:42:45.425Z,19.47
2017-10-26T00:42:58.972Z,19.42
2017-10-26T00:43:12.434Z,19.53
2017-10-26T00:43:25.956Z,19.46
2017-10-26T00:43:38.880Z,19.49
2017-10-26T00:43:52.429Z,19.6
2017-10-26T00:44:05.943Z,19.64
2017-10-26T00:44:19.441Z,19.65
2017-10-26T00:44:32.408Z,19.63
2017-10-26T00:44:44.822Z,19.64
2017-10-26T00:44:58.307Z,19.65
2017-10-26T00:45:11.746Z,19.61
2017-10-26T00:45:25.221Z,19.68
2017-10-26T00:45:38.705Z,19.68
2017-10-26T00:45:52.181Z,19.68
2017-10-26T00:46:05.639Z,19.67
2017-10-26T00:46:18.698Z,19.65
2017-10-26T00:46:32.234Z,19.67
2017-10-26T00:46:45.230Z,19.68
2017-10-26T00:46:58.669Z,19.65
2017-10-26T00:47:11.709Z,19.71
2017-10-26T00:47:24.685Z,19.71
2017-10-26T00:47:37.755Z,19.74
2017-10-26T00:47:51.262Z,19.72
2017-10-26T00:48:04.800Z,19.7
2017-10-26T00:48:17.747Z,19.71
2017-10-26T00:48:31.370Z,19.78
2017-10-26T00:48:44.831Z,19.72
2017-10-26T00:48:58.338Z,19.71
2017-10-26T00:49:11.914Z,19.74
2017-10-26T00:49:24.969Z,19.72
2017-10-26T00:49:38.471Z,19.71
2017-10-26T00:49:51.393Z,19.74
2017-10-26T00:50:05.009Z,19.7
2017-10-26T00:50:18.552Z,19.72
2017-10-26T00:50:31.493Z,19.75
2017-10-26T00:50:45.083Z,19.67
2017-10-26T00:50:57.545Z,19.68
2017-10-26T00:51:11.103Z,19.72
2017-10-26T00:51:24.455Z,19.6
2017-10-26T00:51:37.587Z,19.75
2017-10-26T00:51:50.204Z,19.74
2017-10-26T00:52:02.823Z,19.68
2017-10-26T00:52:16.025Z,19.63
2017-10-26T00:52:29.788Z,19.74
2017-10-26T00:52:43.540Z,19.68
2017-10-26T00:52:57.368Z,19.68
2017-10-26T00:53:11.161Z,19.61
2017-10-26T00:53:23.861Z,19.67
2017-10-26T00:53:37.602Z,19.67
2017-10-26T00:53:51.345Z,19.61
2017-10-26T00:54:05.025Z,19.7
2017-10-26T00:54:18.780Z,19.64
2017-10-26T00:54:32.489Z,19.71
2017-10-26T00:54:45.784Z,19.7
2017-10-26T00:54:59.465Z,19.72
2017-10-26T00:55:12.560Z,19.63
2017-10-26T00:55:26.244Z,19.67
2017-10-26T00:55:39.789Z,19.68
2017-10-26T00:55:53.621Z,19.72
2017-10-26T00:56:07.396Z,19.65
2017-10-26T00:56:21.061Z,19.68
2017-10-26T00:56:34.151Z,19.65
2017-10-26T00:56:47.846Z,19.68
2017-10-26T00:57:01.545Z,19.67
2017-10-26T00:57:15.194Z,19.68
2017-10-26T00:57:28.800Z,19.68
2017-10-26T00:57:41.955Z,19.68
2017-10-26T00:57:55.631Z,19.67
2017-10-26T00:58:08.633Z,19.7
2017-10-26T00:58:22.160Z,19.68
2017-10-26T00:58:36.036Z,19.7
2017-10-26T00:58:49.507Z,19.71
2017-10-26T00:59:03.012Z,19.64
2017-10-26T00:59:15.970Z,19.7
2017-10-26T00:59:28.983Z,19.64
2017-10-26T00:59:42.428Z,19.68
2017-10-26T00:59:55.902Z,19.65
2017-10-26T01:00:09.474Z,19.65
2017-10-26T01:00:23.073Z,19.65
2017-10-26T01:00:35.468Z,19.64
2017-10-26T01:00:49.079Z,19.7
2017-10-26T01:01:02.703Z,19.7
2017-10-26T01:01:15.860Z,19.65
2017-10-26T01:01:28.908Z,19.64
2017-10-26T01:01:41.845Z,19.64
2017-10-26T01:01:55.373Z,19.65
2017-10-26T01:02:08.374Z,19.65
2017-10-26T01:02:21.975Z,19.63
2017-10-26T01:02:35.499Z,19.67
2017-10-26T01:02:49.129Z,19.67
2017-10-26T01:03:02.216Z,19.64
2017-10-26T01:03:15.673Z,19.63
2017-10-26T01:03:29.126Z,19.72
2017-10-26T01:03:42.667Z,19.64
2017-10-26T01:03:56.181Z,19.67
2017-10-26T01:04:09.249Z,19.65
2017-10-26T01:04:22.211Z,19.67
2017-10-26T01:04:35.955Z,19.56
2017-10-26T01:04:49.394Z,19.64
2017-10-26T01:05:02.886Z,19.57
2017-10-26T01:05:16.567Z,19.67
2017-10-26T01:05:30.144Z,19.57
2017-10-26T01:05:42.587Z,19.63
2017-10-26T01:05:56.204Z,19.61
2017-10-26T01:06:09.141Z,19.63
2017-10-26T01:06:22.681Z,19.65
2017-10-26T01:06:35.671Z,19.68
2017-10-26T01:06:49.223Z,19.71
2017-10-26T01:07:02.262Z,19.57
2017-10-26T01:07:15.281Z,19.65
2017-10-26T01:07:28.778Z,19.6
2017-10-26T01:07:41.236Z,19.71
2017-10-26T01:07:54.869Z,19.64
2017-10-26T01:08:08.464Z,19.65
2017-10-26T01:08:22.019Z,19.57
2017-10-26T01:08:35.659Z,19.67
2017-10-26T01:08:49.234Z,19.63
2017-10-26T01:09:02.748Z,19.63
2017-10-26T01:09:16.214Z,19.67
2017-10-26T01:09:29.753Z,19.64
2017-10-26T01:09:43.269Z,19.71
2017-10-26T01:09:56.673Z,19.64
2017-10-26T01:10:09.047Z,19.68
2017-10-26T01:10:21.983Z,19.67
2017-10-26T01:10:35.522Z,19.63
2017-10-26T01:10:48.971Z,19.7
2017-10-26T01:11:02.414Z,19.67
2017-10-26T01:11:15.892Z,19.61
2017-10-26T01:11:29.333Z,19.65
2017-10-26T01:11:42.757Z,19.68
2017-10-26T01:11:55.761Z,19.63
2017-10-26T01:12:08.124Z,19.65
2017-10-26T01:12:21.022Z,19.55
2017-10-26T01:12:34.454Z,19.65
2017-10-26T01:12:47.336Z,19.64
2017-10-26T01:13:00.767Z,19.55
2017-10-26T01:13:13.698Z,19.6
2017-10-26T01:13:26.628Z,19.53
2017-10-26T01:13:40.080Z,19.64
2017-10-26T01:13:53.582Z,19.55
2017-10-26T01:14:06.553Z,19.57
2017-10-26T01:14:19.478Z,19.52
2017-10-26T01:14:32.385Z,19.5
2017-10-26T01:14:45.334Z,19.52
2017-10-26T01:14:58.754Z,19.49
2017-10-26T01:15:12.245Z,19.55
2017-10-26T01:15:25.720Z,19.42
2017-10-26T01:15:38.660Z,19.53
2017-10-26T01:15:52.125Z,19.49
2017-10-26T01:16:05.082Z,19.5
2017-10-26T01:16:18.574Z,19.47
2017-10-26T01:16:31.528Z,19.47
2017-10-26T01:16:44.414Z,19.5
2017-10-26T01:16:57.394Z,19.53
2017-10-26T01:17:10.828Z,19.5
2017-10-26T01:17:24.262Z,19.47
2017-10-26T01:17:36.667Z,19.53
2017-10-26T01:17:50.170Z,19.43
2017-10-26T01:18:03.065Z,19.53
2017-10-26T01:18:16.618Z,19.53
2017-10-26T01:18:30.091Z,19.56
2017-10-26T01:18:43.615Z,19.52
2017-10-26T01:18:56.619Z,19.47
2017-10-26T01:19:10.082Z,19.43
2017-10-26T01:19:23.145Z,19.43
2017-10-26T01:19:36.125Z,19.47
2017-10-26T01:19:49.579Z,19.53
2017-10-26T01:20:03.092Z,19.5
2017-10-26T01:20:17.198Z,19.5
2017-10-26T01:20:30.791Z,19.4
2017-10-26T01:20:43.759Z,19.43
2017-10-26T01:20:56.678Z,19.5
2017-10-26T01:21:10.155Z,19.5
2017-10-26T01:21:23.927Z,19.42
2017-10-26T01:21:36.922Z,19.43
2017-10-26T01:21:49.862Z,19.5
2017-10-26T01:22:03.433Z,19.46
2017-10-26T01:22:15.855Z,19.47
2017-10-26T01:22:29.466Z,19.47
2017-10-26T01:22:42.948Z,19.42
2017-10-26T01:22:56.484Z,19.43
2017-10-26T01:23:09.397Z,19.5
2017-10-26T01:23:22.966Z,19.4
2017-10-26T01:23:36.453Z,19.38
2017-10-26T01:23:49.892Z,19.46
2017-10-26T01:24:03.369Z,19.52
2017-10-26T01:24:16.905Z,19.49
2017-10-26T01:24:28.758Z,19.5
2017-10-26T01:24:42.236Z,19.45
2017-10-26T01:24:55.189Z,19.52
2017-10-26T01:25:08.098Z,19.42
2017-10-26T01:25:21.722Z,19.45
2017-10-26T01:25:35.198Z,19.38
2017-10-26T01:25:48.167Z,19.46
2017-10-26T01:26:01.724Z,19.43
2017-10-26T01:26:14.739Z,19.46
2017-10-26T01:26:27.629Z,19.47
2017-10-26T01:26:41.177Z,19.5
2017-10-26T01:27:00.953Z,19.45
2017-10-26T01:27:14.487Z,19.46
2017-10-26T01:27:27.438Z,19.5
2017-10-26T01:27:40.908Z,19.45
2017-10-26T01:27:54.446Z,19.45
2017-10-26T01:28:07.428Z,19.37
2017-10-26T01:28:20.882Z,19.46
2017-10-26T01:28:34.378Z,19.49
2017-10-26T01:28:47.332Z,19.42
2017-10-26T01:29:00.791Z,19.43
2017-10-26T01:29:14.265Z,19.47
2017-10-26T01:29:27.740Z,19.38
2017-10-26T01:29:40.644Z,19.47
2017-10-26T01:29:53.656Z,19.45
2017-10-26T01:30:06.558Z,19.4
2017-10-26T01:30:20.024Z,19.38
2017-10-26T01:30:33.572Z,19.34
2017-10-26T01:30:47.056Z,19.38
2017-10-26T01:30:59.978Z,19.3
2017-10-26T01:31:12.944Z,19.24
2017-10-26T01:31:26.384Z,19.23
2017-10-26T01:31:39.304Z,19.15
2017-10-26T01:31:52.812Z,19.17
2017-10-26T01:32:06.268Z,19.13
2017-10-26T01:32:19.717Z,19
2017-10-26T01:32:32.655Z,19.02
2017-10-26T01:32:46.102Z,18.99
2017-10-26T01:32:59.592Z,18.93
2017-10-26T01:33:13.078Z,18.93
2017-10-26T01:33:26.523Z,18.96
2017-10-26T01:33:39.991Z,18.9
2017-10-26T01:33:53.386Z,18.87
2017-10-26T01:34:06.825Z,18.89
2017-10-26T01:34:20.240Z,18.87
2017-10-26T01:34:33.170Z,18.91
2017-10-26T01:34:46.647Z,18.84
2017-10-26T01:34:59.643Z,18.84
2017-10-26T01:35:13.132Z,18.75
2017-10-26T01:35:26.153Z,18.81
2017-10-26T01:35:39.049Z,18.78
2017-10-26T01:35:52.514Z,18.66
2017-10-26T01:36:05.968Z,18.68
2017-10-26T01:36:19.443Z,18.72
2017-10-26T01:36:32.386Z,18.71
2017-10-26T01:36:45.348Z,18.69
2017-10-26T01:36:58.770Z,18.68
2017-10-26T01:37:12.218Z,18.68
2017-10-26T01:37:25.643Z,18.56
2017-10-26T01:37:39.192Z,18.56
2017-10-26T01:37:52.663Z,18.59
2017-10-26T01:38:05.570Z,18.59
2017-10-26T01:38:19.011Z,18.49
2017-10-26T01:38:31.926Z,18.44
2017-10-26T01:38:45.343Z,18.39
2017-10-26T01:38:58.292Z,18.42
2017-10-26T01:39:11.745Z,18.45
2017-10-26T01:39:25.195Z,18.44
2017-10-26T01:39:38.176Z,18.36
2017-10-26T01:39:51.690Z,18.42
2017-10-26T01:40:04.603Z,18.38
2017-10-26T01:40:18.055Z,18.35
2017-10-26T01:40:31.619Z,18.44
2017-10-26T01:40:43.998Z,18.31
2017-10-26T01:40:57.468Z,18.44
2017-10-26T01:41:10.884Z,18.35
2017-10-26T01:41:24.363Z,18.36
2017-10-26T01:41:37.897Z,18.35
2017-10-26T01:41:51.396Z,18.32
2017-10-26T01:42:04.841Z,18.32
2017-10-26T01:42:17.757Z,18.32
2017-10-26T01:42:30.654Z,18.38
2017-10-26T01:42:44.103Z,18.34
2017-10-26T01:42:57.581Z,18.36
2017-10-26T01:43:10.497Z,18.31
2017-10-26T01:43:23.920Z,18.38
2017-10-26T01:43:37.365Z,18.36
2017-10-26T01:43:50.801Z,18.31
2017-10-26T01:44:04.259Z,18.32
2017-10-26T01:44:17.725Z,18.29
2017-10-26T01:44:30.682Z,18.34
2017-10-26T01:44:43.630Z,18.26
2017-10-26T01:44:57.055Z,18.29
2017-10-26T01:45:09.998Z,18.27
2017-10-26T01:45:22.932Z,18.29
2017-10-26T01:45:36.352Z,18.27
2017-10-26T01:45:49.803Z,18.27
2017-10-26T01:46:02.695Z,18.29
2017-10-26T01:46:15.622Z,18.26
2017-10-26T01:46:29.060Z,18.27
2017-10-26T01:46:42.497Z,18.31
2017-10-26T01:46:55.947Z,18.24
2017-10-26T01:47:08.351Z,18.19
2017-10-26T01:47:21.792Z,18.29
2017-10-26T01:47:35.307Z,18.27
2017-10-26T01:47:48.794Z,18.24
2017-10-26T01:48:01.699Z,18.24
2017-10-26T01:48:15.196Z,18.26
2017-10-26T01:48:28.679Z,18.29
2017-10-26T01:48:42.145Z,18.24
2017-10-26T01:48:55.645Z,18.24
2017-10-26T01:49:09.066Z,18.26
2017-10-26T01:49:22.477Z,18.26
2017-10-26T01:49:35.949Z,18.23
2017-10-26T01:49:49.380Z,18.23
2017-10-26T01:50:02.807Z,18.32
2017-10-26T01:50:15.711Z,18.26
2017-10-26T01:50:29.773Z,18.29
2017-10-26T01:50:43.249Z,18.29
2017-10-26T01:50:56.720Z,18.27
2017-10-26T01:51:10.200Z,18.29
2017-10-26T01:51:23.138Z,18.32
2017-10-26T01:51:36.072Z,18.26
2017-10-26T01:51:49.573Z,18.36
2017-10-26T01:52:02.445Z,18.31
2017-10-26T01:52:15.335Z,18.31
2017-10-26T01:52:28.796Z,18.44
2017-10-26T01:52:42.242Z,18.31
2017-10-26T01:52:55.717Z,18.24
2017-10-26T01:53:08.616Z,18.39
2017-10-26T01:53:22.040Z,18.38
2017-10-26T01:53:35.463Z,18.39
2017-10-26T01:53:48.888Z,18.38
2017-10-26T01:54:02.360Z,18.36
2017-10-26T01:54:15.772Z,18.39
2017-10-26T01:54:28.165Z,18.39
2017-10-26T01:54:41.047Z,18.42
2017-10-26T01:54:53.395Z,18.36
2017-10-26T01:55:06.870Z,18.38
2017-10-26T01:55:19.823Z,18.42
2017-10-26T01:55:33.411Z,18.42
2017-10-26T01:55:46.847Z,18.41
2017-10-26T01:56:00.322Z,18.38
2017-10-26T01:56:13.225Z,18.42
2017-10-26T01:56:26.649Z,18.35
2017-10-26T01:56:39.487Z,18.42
2017-10-26T01:56:52.943Z,18.36
2017-10-26T01:57:06.361Z,18.49
2017-10-26T01:57:18.735Z,18.41
2017-10-26T01:57:32.170Z,18.41
2017-10-26T01:57:45.644Z,18.36
2017-10-26T01:57:58.545Z,18.34
2017-10-26T01:58:11.476Z,18.38
2017-10-26T01:58:24.418Z,18.44
2017-10-26T01:58:37.878Z,18.36
2017-10-26T01:58:51.350Z,18.36
2017-10-26T01:59:04.235Z,18.35
2017-10-26T01:59:17.690Z,18.38
2017-10-26T01:59:31.140Z,18.41
2017-10-26T01:59:44.593Z,18.38
2017-10-26T01:59:57.486Z,18.38
2017-10-26T02:00:10.349Z,18.38
2017-10-26T02:00:23.791Z,18.34
2017-10-26T02:00:36.730Z,18.38
2017-10-26T02:00:50.198Z,18.39
2017-10-26T02:01:03.119Z,18.41
2017-10-26T02:01:16.529Z,18.47
2017-10-26T02:01:29.457Z,18.49
2017-10-26T02:01:42.387Z,18.39
2017-10-26T02:01:55.850Z,18.51
2017-10-26T02:02:09.256Z,18.45
2017-10-26T02:02:22.711Z,18.39
2017-10-26T02:02:36.124Z,18.49
2017-10-26T02:02:49.563Z,18.39
2017-10-26T02:03:03.014Z,18.44
2017-10-26T02:03:16.446Z,18.42
2017-10-26T02:03:29.364Z,18.45
2017-10-26T02:03:41.746Z,18.49
2017-10-26T02:03:54.625Z,18.39
2017-10-26T02:04:08.091Z,18.41
2017-10-26T02:04:21.574Z,18.42
2017-10-26T02:04:34.981Z,18.41
2017-10-26T02:04:47.919Z,18.42
2017-10-26T02:05:01.329Z,18.44
2017-10-26T02:05:14.792Z,18.44
2017-10-26T02:05:28.256Z,18.42
2017-10-26T02:05:41.934Z,18.44
2017-10-26T02:05:55.395Z,18.45
2017-10-26T02:06:08.853Z,18.44
2017-10-26T02:06:22.349Z,18.44
2017-10-26T02:06:35.723Z,18.5
2017-10-26T02:06:49.156Z,18.45
2017-10-26T02:07:02.588Z,18.47
2017-10-26T02:07:16.033Z,18.47
2017-10-26T02:07:29.445Z,18.53
2017-10-26T02:07:42.307Z,18.44
2017-10-26T02:07:55.733Z,18.6
2017-10-26T02:08:08.682Z,18.44
2017-10-26T02:08:22.124Z,18.44
2017-10-26T02:08:35.543Z,18.56
2017-10-26T02:08:49.010Z,18.57
2017-10-26T02:09:02.470Z,18.57
2017-10-26T02:09:15.881Z,18.5
2017-10-26T02:09:28.263Z,18.45
2017-10-26T02:09:41.171Z,18.54
2017-10-26T02:09:54.601Z,18.47
2017-10-26T02:10:07.507Z,18.51
2017-10-26T02:10:20.385Z,18.56
2017-10-26T02:10:32.674Z,18.49
2017-10-26T02:10:45.565Z,18.5
2017-10-26T02:10:59.009Z,18.45
2017-10-26T02:11:11.353Z,18.53
2017-10-26T02:11:24.783Z,18.54
2017-10-26T02:11:38.183Z,18.47
2017-10-26T02:11:51.103Z,18.47
2017-10-26T02:12:04.546Z,18.5
2017-10-26T02:12:17.994Z,18.5
2017-10-26T02:12:31.409Z,18.5
2017-10-26T02:12:44.260Z,18.5
2017-10-26T02:12:57.680Z,18.51
2017-10-26T02:13:11.172Z,18.54
2017-10-26T02:13:24.572Z,18.56
2017-10-26T02:13:37.969Z,18.53
2017-10-26T02:13:50.862Z,18.53
2017-10-26T02:14:04.351Z,18.54
2017-10-26T02:14:17.815Z,18.53
2017-10-26T02:14:31.269Z,18.5
2017-10-26T02:14:44.659Z,18.5
2017-10-26T02:14:58.155Z,18.57
2017-10-26T02:15:11.607Z,18.57
2017-10-26T02:15:25.020Z,18.54
2017-10-26T02:15:38.424Z,18.49
2017-10-26T02:15:51.286Z,18.5
2017-10-26T02:16:04.720Z,18.5
2017-10-26T02:16:18.149Z,18.45
2017-10-26T02:16:31.015Z,18.47
2017-10-26T02:16:43.363Z,18.59
2017-10-26T02:16:56.758Z,18.53
2017-10-26T02:17:10.131Z,18.49
2017-10-26T02:17:23.595Z,18.51
2017-10-26T02:17:35.960Z,18.57
2017-10-26T02:17:49.422Z,18.57
2017-10-26T02:18:02.864Z,18.59
2017-10-26T02:18:16.280Z,18.57
2017-10-26T02:18:29.747Z,18.56
2017-10-26T02:18:43.182Z,18.6
2017-10-26T02:18:56.056Z,18.56
2017-10-26T02:19:09.518Z,18.6
2017-10-26T02:19:22.373Z,18.56
2017-10-26T02:19:35.791Z,18.54
2017-10-26T02:19:49.228Z,18.59
2017-10-26T02:20:02.111Z,18.59
2017-10-26T02:20:15.560Z,18.56
2017-10-26T02:20:28.491Z,18.53
2017-10-26T02:20:41.945Z,18.59
2017-10-26T02:20:55.387Z,18.54
2017-10-26T02:21:08.806Z,18.6
2017-10-26T02:21:22.222Z,18.5
2017-10-26T02:21:35.148Z,18.61
2017-10-26T02:21:48.014Z,18.5
2017-10-26T02:22:00.887Z,18.5
2017-10-26T02:22:14.310Z,18.56
2017-10-26T02:22:27.226Z,18.5
2017-10-26T02:22:40.642Z,18.47
2017-10-26T02:22:54.125Z,18.5
2017-10-26T02:23:07.550Z,18.61
2017-10-26T02:23:20.451Z,18.5
2017-10-26T02:23:33.912Z,18.49
2017-10-26T02:23:47.354Z,18.47
2017-10-26T02:24:00.749Z,18.54
2017-10-26T02:24:14.144Z,18.49
2017-10-26T02:24:27.592Z,18.49
2017-10-26T02:24:39.996Z,18.49
2017-10-26T02:24:53.466Z,18.54
2017-10-26T02:25:05.799Z,18.53
2017-10-26T02:25:19.220Z,18.53
2017-10-26T02:25:32.694Z,18.47
2017-10-26T02:25:46.144Z,18.56
2017-10-26T02:25:59.062Z,18.53
2017-10-26T02:26:12.481Z,18.45
2017-10-26T02:26:25.900Z,18.6
2017-10-26T02:26:38.834Z,18.49
2017-10-26T02:26:52.263Z,18.53
2017-10-26T02:27:04.056Z,18.56
2017-10-26T02:27:17.489Z,18.65
2017-10-26T02:27:30.931Z,18.53
2017-10-26T02:27:43.830Z,18.6
2017-10-26T02:27:57.263Z,18.63
2017-10-26T02:28:10.710Z,18.6
2017-10-26T02:28:24.139Z,18.56
2017-10-26T02:28:37.611Z,18.56
2017-10-26T02:28:51.051Z,18.57
2017-10-26T02:29:03.939Z,18.59
2017-10-26T02:29:16.838Z,18.57
2017-10-26T02:29:30.300Z,18.59
2017-10-26T02:29:43.697Z,18.54
2017-10-26T02:29:57.121Z,18.59
2017-10-26T02:30:09.470Z,18.56
2017-10-26T02:30:22.941Z,18.56
2017-10-26T02:30:36.385Z,18.54
2017-10-26T02:30:49.849Z,18.5
2017-10-26T02:31:03.282Z,18.6
2017-10-26T02:31:16.679Z,18.5
2017-10-26T02:31:29.590Z,18.5
2017-10-26T02:31:43.074Z,18.45
2017-10-26T02:31:56.502Z,18.51
2017-10-26T02:32:09.922Z,18.5
2017-10-26T02:32:23.357Z,18.5
2017-10-26T02:32:36.792Z,18.49
2017-10-26T02:32:50.191Z,18.54
2017-10-26T02:33:03.640Z,18.51
2017-10-26T02:33:16.480Z,18.5
2017-10-26T02:33:29.345Z,18.5
2017-10-26T02:33:42.287Z,18.47
2017-10-26T02:33:55.699Z,18.53
2017-10-26T02:34:08.558Z,18.53
2017-10-26T02:34:21.962Z,18.51
2017-10-26T02:34:34.908Z,18.5
2017-10-26T02:34:48.327Z,18.57
2017-10-26T02:35:01.237Z,18.49
2017-10-26T02:35:13.628Z,18.5
2017-10-26T02:35:27.096Z,18.47
2017-10-26T02:35:40.564Z,18.47
2017-10-26T02:35:54.804Z,18.42
2017-10-26T02:36:08.281Z,18.44
2017-10-26T02:36:21.729Z,18.42
2017-10-26T02:36:35.217Z,18.44
2017-10-26T02:36:48.612Z,18.45
2017-10-26T02:37:02.049Z,18.39
2017-10-26T02:37:15.510Z,18.42
2017-10-26T02:37:28.978Z,18.38
2017-10-26T02:37:41.896Z,18.41
2017-10-26T02:37:55.308Z,18.41
2017-10-26T02:38:07.646Z,18.47
2017-10-26T02:38:21.091Z,18.45
2017-10-26T02:38:34.505Z,18.47
2017-10-26T02:38:47.390Z,18.41
2017-10-26T02:39:00.316Z,18.42
2017-10-26T02:39:13.737Z,18.47
2017-10-26T02:39:27.176Z,18.42
2017-10-26T02:39:40.605Z,18.39
2017-10-26T02:39:54.083Z,18.42
2017-10-26T02:40:07.555Z,18.44
2017-10-26T02:40:20.934Z,18.41
2017-10-26T02:40:34.362Z,18.44
2017-10-26T02:40:46.766Z,18.41
2017-10-26T02:40:59.639Z,18.49
2017-10-26T02:41:12.522Z,18.41
2017-10-26T02:41:25.992Z,18.45
2017-10-26T02:41:38.862Z,18.44
2017-10-26T02:41:52.314Z,18.39
2017-10-26T02:42:05.157Z,18.45
2017-10-26T02:42:18.587Z,18.36
2017-10-26T02:42:31.975Z,18.39
2017-10-26T02:42:45.366Z,18.39
2017-10-26T02:42:58.244Z,18.35
2017-10-26T02:43:11.178Z,18.38
2017-10-26T02:43:24.663Z,18.27
2017-10-26T02:43:37.578Z,18.27
2017-10-26T02:43:50.521Z,18.36
2017-10-26T02:44:03.421Z,18.35
2017-10-26T02:44:16.894Z,18.35
2017-10-26T02:44:29.809Z,18.32
2017-10-26T02:44:43.250Z,18.34
2017-10-26T02:44:55.593Z,18.34
2017-10-26T02:45:09.048Z,18.34
2017-10-26T02:45:21.414Z,18.36
2017-10-26T02:45:34.318Z,18.31
2017-10-26T02:45:47.739Z,18.38
2017-10-26T02:46:00.671Z,18.38
2017-10-26T02:46:13.083Z,18.34
2017-10-26T02:46:26.554Z,18.31
2017-10-26T02:46:39.486Z,18.29
2017-10-26T02:46:52.932Z,18.34
2017-10-26T02:47:05.863Z,18.32
2017-10-26T02:47:19.314Z,18.39
2017-10-26T02:47:33.338Z,18.32
2017-10-26T02:47:46.290Z,18.26
2017-10-26T02:47:59.721Z,18.38
2017-10-26T02:48:12.669Z,18.36
2017-10-26T02:48:26.102Z,18.42
2017-10-26T02:48:39.526Z,18.42
2017-10-26T02:48:53.020Z,18.34
2017-10-26T02:49:06.459Z,18.31
2017-10-26T02:49:19.922Z,18.35
2017-10-26T02:49:33.385Z,18.42
2017-10-26T02:49:46.859Z,18.38
2017-10-26T02:50:00.321Z,18.34
2017-10-26T02:50:13.229Z,18.41
2017-10-26T02:50:26.135Z,18.31
2017-10-26T02:50:39.561Z,18.36
2017-10-26T02:50:53.599Z,18.38
2017-10-26T02:51:07.058Z,18.38
2017-10-26T02:51:19.962Z,18.38
2017-10-26T02:51:33.398Z,18.45
2017-10-26T02:51:46.792Z,18.27
2017-10-26T02:52:00.232Z,18.34